Terminal Aerodrome Forecast
Issued by NWS

Home | Current Version | Previous Version | Text Only | Print | Product List | Glossary On
Versions: 1 2 3 4 5 6 7 8 9 10 11 12 13 14 15 16
312
FTUS43 KEAX 271122
TAFSTJ
TAF
KSTJ 271122Z 2712/2812 29010KT P6SM OVC040
     FM271500 VRB05KT P6SM SCT200
     FM280400 VRB05KT P6SM VCSH OVC080
     FM280700 09009KT P6SM -RA OVC020
      TEMPO 2808/2811 4SM -RA BR OVC015
     FM281100 09010KT 6SM BR VCSH OVC008=

USA.gov is the U.S. government's official web portal to all federal, state and local government web resources and services.